createdAt,value
2018-12-16T00:02:53.172Z,0.50
2018-12-16T00:05:28.199Z,0.50
2018-12-16T00:08:02.296Z,0.40
2018-12-16T00:10:37.408Z,0.30
2018-12-16T00:13:12.196Z,0.30
2018-12-16T00:15:46.747Z,0.30
2018-12-16T00:18:24.801Z,0.30
2018-12-16T00:20:59.074Z,0.30
2018-12-16T00:23:33.097Z,0.40
2018-12-16T00:26:07.260Z,0.30
2018-12-16T00:28:41.365Z,0.30
2018-12-16T00:31:15.735Z,0.30
2018-12-16T00:33:49.780Z,0.30
2018-12-16T00:36:24.083Z,0.30
2018-12-16T00:38:58.251Z,0.40
2018-12-16T00:41:32.367Z,0.30
2018-12-16T00:44:07.227Z,0.40
2018-12-16T00:46:41.355Z,0.40
2018-12-16T00:49:19.163Z,0.40
2018-12-16T00:51:53.477Z,0.30
2018-12-16T00:54:29.092Z,0.40
2018-12-16T00:57:07.492Z,0.30
2018-12-16T00:59:41.659Z,0.40
2018-12-16T01:02:20.613Z,0.30
2018-12-16T01:07:27.643Z,0.40
2018-12-16T01:10:01.703Z,0.40
2018-12-16T01:12:35.979Z,0.40
2018-12-16T01:15:14.766Z,0.40
2018-12-16T01:17:49.023Z,0.40
2018-12-16T01:20:22.910Z,0.30
2018-12-16T01:22:57.301Z,0.30
2018-12-16T01:25:31.382Z,0.30
2018-12-16T01:28:05.448Z,0.30
2018-12-16T01:30:40.235Z,0.30
2018-12-16T01:33:14.396Z,0.30
2018-12-16T01:35:48.456Z,0.30
2018-12-16T01:38:22.416Z,0.30
2018-12-16T01:40:56.632Z,0.30
2018-12-16T01:43:30.959Z,0.30
2018-12-16T01:46:05.070Z,0.30
2018-12-16T01:48:38.974Z,0.30
2018-12-16T01:51:13.023Z,0.40
2018-12-16T01:53:51.403Z,0.40
2018-12-16T01:56:29.229Z,0.40
2018-12-16T01:59:03.102Z,0.30
2018-12-16T02:01:39.135Z,0.30
2018-12-16T02:04:13.329Z,0.30
2018-12-16T02:06:47.427Z,0.30
2018-12-16T02:09:21.392Z,0.30
2018-12-16T02:11:55.587Z,0.30
2018-12-16T02:14:29.955Z,0.30
2018-12-16T02:17:03.783Z,0.30
2018-12-16T02:19:38.160Z,0.30
2018-12-16T02:22:12.394Z,0.30
2018-12-16T02:24:46.729Z,0.30
2018-12-16T02:27:20.722Z,0.30
2018-12-16T02:29:58.710Z,0.30
2018-12-16T02:32:32.748Z,0.40
2018-12-16T02:35:07.613Z,0.30
2018-12-16T02:37:41.498Z,0.30
2018-12-16T02:40:15.637Z,0.30
2018-12-16T02:42:49.665Z,0.20
2018-12-16T02:45:23.955Z,0.30
2018-12-16T02:47:58.771Z,0.30
2018-12-16T02:50:32.709Z,0.30
2018-12-16T02:53:07.584Z,0.30
2018-12-16T02:55:42.240Z,0.20
2018-12-16T02:58:16.107Z,0.20
2018-12-16T03:00:50.262Z,0.20
2018-12-16T03:03:24.277Z,0.30
2018-12-16T03:05:59.006Z,0.20
2018-12-16T03:08:33.045Z,0.20
2018-12-16T03:18:45.509Z,0.20
2018-12-16T03:26:25.191Z,0.10
2018-12-16T03:28:59.257Z,0.10
2018-12-16T03:31:33.451Z,0.20
2018-12-16T03:34:08.282Z,0.10
2018-12-16T03:36:42.549Z,0.10
2018-12-16T03:39:16.827Z,0.10
2018-12-16T03:41:51.180Z,0.10
2018-12-16T03:44:25.200Z,0.10
2018-12-16T03:46:59.202Z,0.10
2018-12-16T03:49:40.218Z,0.10
2018-12-16T03:52:14.079Z,0.10
2018-12-16T03:54:52.304Z,0.20
2018-12-16T03:57:26.757Z,0.10
2018-12-16T04:00:00.807Z,0.10
2018-12-16T04:02:35.038Z,0.10
2018-12-16T04:05:09.379Z,0.10
2018-12-16T04:07:43.475Z,0.00
2018-12-16T04:10:17.767Z,0.10
2018-12-16T04:12:53.240Z,0.00
2018-12-16T04:15:27.231Z,0.00
2018-12-16T04:18:01.420Z,0.00
2018-12-16T04:20:35.496Z,0.10
2018-12-16T04:23:09.721Z,0.00
2018-12-16T04:25:47.810Z,0.10
2018-12-16T04:28:21.712Z,0.20
2018-12-16T04:30:56.501Z,0.20
2018-12-16T04:33:30.531Z,0.10
2018-12-16T04:36:04.525Z,0.00
2018-12-16T04:38:38.514Z,0.00
2018-12-16T04:41:17.172Z,0.00
2018-12-16T04:43:55.803Z,0.10
2018-12-16T04:46:29.812Z,0.00
2018-12-16T04:49:04.613Z,0.00
2018-12-16T04:51:39.390Z,0.00
2018-12-16T04:54:13.476Z,0.10
2018-12-16T04:56:47.462Z,0.00
2018-12-16T04:59:21.465Z,-0.10
2018-12-16T05:01:55.615Z,-0.10
2018-12-16T05:04:29.831Z,-0.10
2018-12-16T05:07:03.942Z,-0.10
2018-12-16T05:09:38.063Z,-0.10
2018-12-16T05:12:12.184Z,-0.10
2018-12-16T05:14:46.188Z,-0.10
2018-12-16T05:17:20.435Z,-0.10
2018-12-16T05:19:54.493Z,-0.10
2018-12-16T05:22:29.634Z,-0.10
2018-12-16T05:25:04.658Z,-0.10
2018-12-16T05:30:12.073Z,-0.20
2018-12-16T05:32:46.731Z,-0.10
2018-12-16T05:35:20.703Z,-0.10
2018-12-16T05:37:54.859Z,-0.10
2018-12-16T05:40:29.272Z,-0.20
2018-12-16T05:43:03.971Z,-0.20
2018-12-16T05:45:37.980Z,-0.20
2018-12-16T05:48:12.089Z,-0.10
2018-12-16T05:50:46.437Z,-0.10
2018-12-16T05:53:20.330Z,-0.20
2018-12-16T05:55:58.360Z,-0.20
2018-12-16T05:58:36.586Z,-0.20
2018-12-16T06:01:10.528Z,-0.30
2018-12-16T06:03:44.759Z,-0.20
2018-12-16T06:06:18.711Z,-0.20
2018-12-16T06:08:52.631Z,-0.20
2018-12-16T06:11:26.740Z,-0.30
2018-12-16T06:14:00.599Z,-0.30
2018-12-16T06:16:35.820Z,-0.20
2018-12-16T06:19:10.695Z,-0.20
2018-12-16T06:21:44.831Z,-0.30
2018-12-16T06:24:22.805Z,-0.30
2018-12-16T06:26:56.748Z,-0.30
2018-12-16T06:32:04.129Z,-0.30
2018-12-16T06:34:38.022Z,-0.30
2018-12-16T06:37:11.871Z,-0.30
2018-12-16T06:39:49.761Z,-0.20
2018-12-16T06:42:23.740Z,-0.20
2018-12-16T06:44:58.484Z,-0.20
2018-12-16T06:47:32.748Z,-0.20
2018-12-16T06:50:08.144Z,-0.20
2018-12-16T06:52:42.298Z,-0.30
2018-12-16T06:55:16.413Z,-0.20
2018-12-16T06:57:50.472Z,-0.20
2018-12-16T07:00:25.174Z,-0.30
2018-12-16T07:02:59.701Z,-0.20
2018-12-16T07:05:33.702Z,-0.20
2018-12-16T07:08:08.330Z,-0.30
2018-12-16T07:10:42.565Z,-0.30
2018-12-16T07:13:17.351Z,-0.20
2018-12-16T07:15:51.849Z,-0.20
2018-12-16T07:18:25.818Z,-0.20
2018-12-16T07:21:00.163Z,-0.20
2018-12-16T07:23:34.279Z,-0.20
2018-12-16T07:26:08.557Z,-0.30
2018-12-16T07:28:43.554Z,-0.20
2018-12-16T07:31:17.405Z,-0.30
2018-12-16T07:38:57.372Z,-0.20
2018-12-16T07:41:31.297Z,-0.20
2018-12-16T07:44:05.463Z,-0.10
2018-12-16T07:46:39.470Z,-0.10
2018-12-16T07:49:13.730Z,0.00
2018-12-16T07:51:47.995Z,0.00
2018-12-16T07:54:22.203Z,0.00
2018-12-16T07:56:56.548Z,0.00
2018-12-16T07:59:31.256Z,0.00
2018-12-16T08:02:05.431Z,0.00
2018-12-16T08:04:39.380Z,0.00
2018-12-16T08:07:13.628Z,0.00
2018-12-16T08:09:48.419Z,0.10
2018-12-16T08:12:22.629Z,0.10
2018-12-16T08:14:56.843Z,0.10
2018-12-16T08:17:31.540Z,0.10
2018-12-16T08:20:06.859Z,0.10
2018-12-16T08:22:41.005Z,0.10
2018-12-16T08:25:15.316Z,0.20
2018-12-16T08:27:53.457Z,0.20
2018-12-16T08:30:27.521Z,0.20
2018-12-16T08:33:05.687Z,0.20
2018-12-16T08:35:39.975Z,0.30
2018-12-16T08:38:14.283Z,0.30
2018-12-16T08:40:48.708Z,0.30
2018-12-16T08:43:22.909Z,0.20
2018-12-16T08:45:56.843Z,0.30
2018-12-16T08:48:30.995Z,0.30
2018-12-16T08:51:09.148Z,0.50
2018-12-16T08:53:44.034Z,0.50
2018-12-16T08:56:17.990Z,0.50
2018-12-16T08:58:52.265Z,0.50
2018-12-16T09:01:26.095Z,0.50
2018-12-16T09:04:00.836Z,0.60
2018-12-16T09:06:35.995Z,0.50
2018-12-16T09:09:11.309Z,0.50
2018-12-16T09:11:45.868Z,0.60
2018-12-16T09:14:19.959Z,0.60
2018-12-16T09:16:54.108Z,0.60
2018-12-16T09:19:28.192Z,0.70
2018-12-16T09:22:03.179Z,0.70
2018-12-16T09:24:37.651Z,0.70
2018-12-16T09:27:12.416Z,0.80
2018-12-16T09:29:46.573Z,0.80
2018-12-16T09:32:24.541Z,0.80
2018-12-16T09:34:58.532Z,0.80
2018-12-16T09:37:32.658Z,0.70
2018-12-16T09:40:08.028Z,0.70
2018-12-16T09:55:29.946Z,0.80
2018-12-16T09:58:04.029Z,0.90
2018-12-16T10:00:38.264Z,0.90
2018-12-16T10:03:14.360Z,0.80
2018-12-16T10:05:52.732Z,0.80
2018-12-16T10:08:28.110Z,0.80
2018-12-16T10:11:02.651Z,0.90
2018-12-16T10:13:36.743Z,1.10
2018-12-16T10:16:11.103Z,1.00
2018-12-16T10:18:45.215Z,0.90
2018-12-16T10:21:19.453Z,0.80
2018-12-16T10:23:53.453Z,0.80
2018-12-16T10:26:27.598Z,0.80
2018-12-16T10:29:05.693Z,0.80
2018-12-16T10:31:39.907Z,0.80
2018-12-16T10:34:14.077Z,1.00
2018-12-16T10:36:48.205Z,1.10
2018-12-16T10:39:23.435Z,1.20
2018-12-16T10:41:58.181Z,1.50
2018-12-16T10:44:32.599Z,1.80
2018-12-16T10:47:07.590Z,1.50
2018-12-16T10:49:41.618Z,1.50
2018-12-16T10:52:15.932Z,1.60
2018-12-16T11:02:29.679Z,1.40
2018-12-16T11:05:04.555Z,1.50
2018-12-16T11:07:38.774Z,1.40
2018-12-16T11:10:14.684Z,1.30
2018-12-16T11:12:49.078Z,1.20
2018-12-16T11:15:23.841Z,1.20
2018-12-16T11:17:58.686Z,1.20
2018-12-16T11:20:36.800Z,1.30
2018-12-16T11:23:11.886Z,1.30
2018-12-16T11:25:52.091Z,1.30
2018-12-16T11:28:30.998Z,1.20
2018-12-16T11:31:05.237Z,1.00
2018-12-16T11:33:39.521Z,1.00
2018-12-16T11:36:14.388Z,1.00
2018-12-16T11:38:48.476Z,1.00
2018-12-16T11:41:22.589Z,1.00
2018-12-16T11:43:56.616Z,1.00
2018-12-16T11:46:31.157Z,0.90
2018-12-16T11:49:06.074Z,0.90
2018-12-16T11:51:40.564Z,0.80
2018-12-16T11:54:14.897Z,0.90
2018-12-16T11:56:49.645Z,1.00
2018-12-16T11:59:23.638Z,1.00
2018-12-16T12:01:57.779Z,1.10
2018-12-16T12:04:32.372Z,1.10
2018-12-16T12:07:07.243Z,1.30
2018-12-16T12:09:41.229Z,1.30
2018-12-16T12:12:15.430Z,1.30
2018-12-16T12:14:49.532Z,1.40
2018-12-16T12:17:23.631Z,1.30
2018-12-16T12:19:57.646Z,1.30
2018-12-16T12:22:32.411Z,1.30
2018-12-16T12:25:06.906Z,1.30
2018-12-16T12:27:41.348Z,1.30
2018-12-16T12:30:15.811Z,1.20
2018-12-16T12:32:50.639Z,1.10
2018-12-16T12:35:25.660Z,1.10
2018-12-16T12:38:01.180Z,1.10
2018-12-16T12:40:39.362Z,1.10
2018-12-16T12:43:13.450Z,1.00
2018-12-16T12:45:48.769Z,1.00
2018-12-16T12:48:22.892Z,0.90
2018-12-16T12:50:56.998Z,0.90
2018-12-16T12:53:31.092Z,1.00
2018-12-16T12:56:06.133Z,1.00
2018-12-16T12:58:40.380Z,1.00
2018-12-16T13:01:18.423Z,0.90
2018-12-16T13:03:52.367Z,0.70
2018-12-16T13:06:26.756Z,0.70
2018-12-16T13:09:01.579Z,0.60
2018-12-16T13:11:35.632Z,0.60
2018-12-16T13:14:09.696Z,0.60
2018-12-16T13:16:43.949Z,0.60
2018-12-16T13:19:19.120Z,0.50
2018-12-16T13:21:58.523Z,0.50
2018-12-16T13:24:33.432Z,0.50
2018-12-16T13:27:07.587Z,0.60
2018-12-16T13:29:41.896Z,0.60
2018-12-16T13:32:16.788Z,0.60
2018-12-16T13:34:51.010Z,0.60
2018-12-16T13:37:29.358Z,0.50
2018-12-16T13:40:04.277Z,0.50
2018-12-16T13:42:38.611Z,0.50
2018-12-16T13:45:13.648Z,0.50
2018-12-16T13:47:48.660Z,0.50
2018-12-16T13:50:26.663Z,0.60
2018-12-16T13:53:01.582Z,0.60
2018-12-16T13:55:40.841Z,0.60
2018-12-16T13:58:12.194Z,0.50
2018-12-16T14:00:47.112Z,0.40
2018-12-16T14:03:25.215Z,0.40
2018-12-16T14:05:59.888Z,0.40
2018-12-16T14:08:34.338Z,0.50
2018-12-16T14:11:09.300Z,0.50
2018-12-16T14:13:43.380Z,0.40
2018-12-16T14:16:17.472Z,0.40
2018-12-16T14:18:51.702Z,0.40
2018-12-16T14:21:25.939Z,0.40
2018-12-16T14:24:04.312Z,0.50
2018-12-16T14:26:42.893Z,0.50
2018-12-16T14:29:17.913Z,0.60
2018-12-16T14:31:52.034Z,0.50
2018-12-16T14:34:26.124Z,0.40
2018-12-16T14:37:01.124Z,0.50
2018-12-16T14:39:36.176Z,0.50
2018-12-16T14:42:10.481Z,0.40
2018-12-16T14:44:45.441Z,0.40
2018-12-16T14:47:19.723Z,0.30
2018-12-16T14:49:54.597Z,0.30
2018-12-16T14:52:28.711Z,0.30
2018-12-16T14:55:08.441Z,0.40
2018-12-16T14:57:43.165Z,0.40
2018-12-16T15:00:18.199Z,0.40
2018-12-16T15:02:56.339Z,0.30
2018-12-16T15:05:30.366Z,0.20
2018-12-16T15:08:04.761Z,0.10
2018-12-16T15:10:39.678Z,0.10
2018-12-16T15:13:13.781Z,0.10
2018-12-16T15:15:47.998Z,0.00
2018-12-16T15:18:26.833Z,0.00
2018-12-16T15:21:01.292Z,0.00
2018-12-16T15:23:37.369Z,0.10
2018-12-16T15:26:12.960Z,0.00
2018-12-16T15:28:47.403Z,0.00
2018-12-16T15:31:21.606Z,0.00
2018-12-16T15:33:55.591Z,-0.10
2018-12-16T15:36:33.684Z,-0.10
2018-12-16T15:39:08.974Z,-0.10
2018-12-16T15:41:43.100Z,-0.10
2018-12-16T15:44:17.140Z,-0.10
2018-12-16T15:46:56.077Z,0.00
2018-12-16T15:49:31.087Z,-0.10
2018-12-16T15:52:05.693Z,-0.10
2018-12-16T15:54:41.183Z,-0.10
2018-12-16T15:57:15.763Z,-0.10
2018-12-16T15:59:50.126Z,-0.10
2018-12-16T16:02:24.957Z,-0.10
2018-12-16T16:04:59.925Z,-0.10
2018-12-16T16:07:35.628Z,-0.10
2018-12-16T16:10:10.422Z,-0.20
2018-12-16T16:12:49.227Z,-0.10
2018-12-16T16:15:23.527Z,-0.10
2018-12-16T16:17:58.221Z,-0.10
2018-12-16T16:20:32.596Z,-0.10
2018-12-16T16:23:06.965Z,-0.10
2018-12-16T16:25:41.652Z,-0.10
2018-12-16T16:28:15.723Z,-0.10
2018-12-16T16:30:54.414Z,-0.10
2018-12-16T16:33:29.115Z,-0.20
2018-12-16T16:36:04.031Z,-0.20
2018-12-16T16:38:38.435Z,-0.20
2018-12-16T16:41:12.495Z,-0.20
2018-12-16T16:43:46.669Z,-0.20
2018-12-16T16:46:21.708Z,-0.20
2018-12-16T16:48:56.078Z,-0.20
2018-12-16T16:51:30.721Z,-0.20
2018-12-16T16:54:05.094Z,-0.10
2018-12-16T16:56:39.886Z,-0.20
2018-12-16T16:59:14.283Z,-0.20
2018-12-16T17:01:49.000Z,-0.20
2018-12-16T17:04:23.690Z,-0.30
2018-12-16T17:06:57.770Z,-0.30
2018-12-16T17:09:33.353Z,-0.30
2018-12-16T17:12:12.070Z,-0.30
2018-12-16T17:14:47.120Z,-0.30
2018-12-16T17:17:21.318Z,-0.30
2018-12-16T17:19:56.426Z,-0.40
2018-12-16T17:22:31.455Z,-0.40
2018-12-16T17:25:08.800Z,-0.30
2018-12-16T17:27:43.705Z,-0.30
2018-12-16T17:30:18.705Z,-0.40
2018-12-16T17:32:52.887Z,-0.30
2018-12-16T17:35:28.154Z,-0.30
2018-12-16T17:38:03.165Z,-0.30
2018-12-16T17:40:38.196Z,-0.40
2018-12-16T17:43:13.132Z,-0.40
2018-12-16T17:45:47.633Z,-0.40
2018-12-16T17:48:21.714Z,-0.40
2018-12-16T17:50:56.839Z,-0.40
2018-12-16T17:53:31.665Z,-0.30
2018-12-16T17:56:06.303Z,-0.40
2018-12-16T17:58:41.155Z,-0.40
2018-12-16T18:01:16.120Z,-0.30
2018-12-16T18:03:50.184Z,-0.40
2018-12-16T18:06:24.175Z,-0.40
2018-12-16T18:08:58.465Z,-0.40
2018-12-16T18:11:37.437Z,-0.40
2018-12-16T18:14:16.382Z,-0.40
2018-12-16T18:16:50.720Z,-0.50
2018-12-16T18:19:25.033Z,-0.40
2018-12-16T18:22:01.397Z,-0.40
2018-12-16T18:24:36.342Z,-0.40
2018-12-16T18:27:11.248Z,-0.40
2018-12-16T18:29:46.253Z,-0.50
2018-12-16T18:32:20.429Z,-0.40
2018-12-16T18:34:58.566Z,-0.40
2018-12-16T18:37:33.585Z,-0.40
2018-12-16T18:40:08.541Z,-0.40
2018-12-16T18:42:42.998Z,-0.90
2018-12-16T18:45:17.175Z,-0.50
2018-12-16T18:47:51.420Z,-0.50
2018-12-16T18:50:25.757Z,-0.50
2018-12-16T18:52:59.917Z,-0.50
2018-12-16T18:55:34.843Z,-0.50
2018-12-16T18:58:13.431Z,-0.60
2018-12-16T19:00:48.396Z,-0.50
2018-12-16T19:03:23.221Z,-0.50
2018-12-16T19:05:57.443Z,-0.40
2018-12-16T19:08:31.861Z,-0.50
2018-12-16T19:11:06.891Z,-0.50
2018-12-16T19:13:41.095Z,-0.60
2018-12-16T19:16:15.154Z,-0.60
2018-12-16T19:18:49.790Z,-0.60
2018-12-16T19:21:24.215Z,-0.60
2018-12-16T19:23:58.366Z,-0.60
2018-12-16T19:26:36.770Z,-0.60
2018-12-16T19:29:11.704Z,-0.70
2018-12-16T19:31:46.758Z,-0.70
2018-12-16T19:34:21.157Z,-0.70
2018-12-16T19:36:55.264Z,-0.70
2018-12-16T19:39:33.768Z,-0.70
2018-12-16T19:42:08.690Z,-0.60
2018-12-16T19:44:42.859Z,-0.60
2018-12-16T19:47:21.006Z,-0.70
2018-12-16T19:49:55.087Z,-0.60
2018-12-16T19:52:29.220Z,-0.60
2018-12-16T19:55:03.606Z,-0.50
2018-12-16T19:57:37.931Z,-0.60
2018-12-16T20:00:12.468Z,-0.60
2018-12-16T20:02:46.791Z,-0.60
2018-12-16T20:05:23.664Z,-0.60
2018-12-16T20:07:58.384Z,-0.60
2018-12-16T20:10:33.291Z,-0.60
2018-12-16T20:13:08.196Z,-0.70
2018-12-16T20:15:43.216Z,-0.70
2018-12-16T20:18:17.499Z,-0.70
2018-12-16T20:20:56.725Z,-0.70
2018-12-16T20:23:31.407Z,-0.60
2018-12-16T20:26:06.095Z,-0.70
2018-12-16T20:28:41.023Z,-0.60
2018-12-16T20:31:16.292Z,-0.60
2018-12-16T20:33:51.441Z,-0.70
2018-12-16T20:36:26.333Z,-0.70
2018-12-16T20:39:00.461Z,-0.70
2018-12-16T20:41:35.602Z,-0.70
2018-12-16T20:44:11.414Z,-0.70
2018-12-16T20:46:46.445Z,-0.70
2018-12-16T20:49:20.901Z,-0.70
2018-12-16T20:51:56.045Z,-0.60
2018-12-16T20:54:31.979Z,-0.60
2018-12-16T20:57:06.719Z,-0.60
2018-12-16T20:59:41.582Z,-0.70
2018-12-16T21:02:16.765Z,-0.70
2018-12-16T21:04:56.052Z,-0.70
2018-12-16T21:07:31.213Z,-0.70
2018-12-16T21:10:10.334Z,-0.80
2018-12-16T21:12:49.352Z,-0.80
2018-12-16T21:15:29.375Z,-0.70
2018-12-16T21:18:08.357Z,-0.70
2018-12-16T21:20:47.361Z,-0.70
2018-12-16T21:23:22.482Z,-0.70
2018-12-16T21:25:57.757Z,-0.70
2018-12-16T21:28:33.035Z,-0.60
2018-12-16T21:31:08.070Z,-0.50
2018-12-16T21:33:43.070Z,-0.60
2018-12-16T21:36:18.180Z,-0.60
2018-12-16T21:38:52.356Z,-0.60
2018-12-16T21:41:26.607Z,-0.60
2018-12-16T21:44:01.442Z,-0.60
2018-12-16T21:46:36.795Z,-0.60
2018-12-16T21:49:11.816Z,-0.60
2018-12-16T21:51:46.770Z,-0.60
2018-12-16T21:54:21.831Z,-0.70
2018-12-16T21:56:55.866Z,-0.70
2018-12-16T21:59:31.041Z,-0.60
2018-12-16T22:02:06.212Z,-0.60
2018-12-16T22:04:40.294Z,-0.60
2018-12-16T22:07:15.515Z,-0.50
2018-12-16T22:09:51.322Z,-0.50
2018-12-16T22:12:25.755Z,-0.60
2018-12-16T22:15:00.030Z,-0.60
2018-12-16T22:17:35.738Z,-0.70
2018-12-16T22:20:10.457Z,-0.70
2018-12-16T22:22:45.431Z,-0.70
2018-12-16T22:25:19.735Z,-0.70
2018-12-16T22:27:54.753Z,-0.70
2018-12-16T22:30:29.237Z,-0.60
2018-12-16T22:33:04.585Z,-0.60
2018-12-16T22:35:39.595Z,-0.70
2018-12-16T22:38:14.877Z,-0.70
2018-12-16T22:40:49.795Z,-0.70
2018-12-16T22:43:25.095Z,-0.70
2018-12-16T22:45:59.885Z,-0.70
2018-12-16T22:48:38.020Z,-0.70
2018-12-16T22:51:13.277Z,-0.70
2018-12-16T22:53:47.499Z,-0.70
2018-12-16T22:56:21.501Z,-0.80
2018-12-16T22:58:56.520Z,-0.70
2018-12-16T23:01:31.793Z,-0.80
2018-12-16T23:04:10.128Z,-0.70
2018-12-16T23:06:44.089Z,-0.70
2018-12-16T23:09:18.710Z,-0.70
2018-12-16T23:11:52.885Z,-0.70
2018-12-16T23:14:27.310Z,-0.70
2018-12-16T23:17:05.614Z,-0.70
2018-12-16T23:19:39.728Z,-0.70
2018-12-16T23:22:14.428Z,-0.70
2018-12-16T23:24:53.323Z,-0.70
2018-12-16T23:27:31.288Z,-0.80
2018-12-16T23:30:10.104Z,-0.70
2018-12-16T23:32:48.856Z,-0.80
2018-12-16T23:35:23.649Z,-0.70
2018-12-16T23:37:57.691Z,-0.80
2018-12-16T23:40:38.953Z,-0.80
2018-12-16T23:43:13.718Z,-0.80
2018-12-16T23:45:48.140Z,-0.80
2018-12-16T23:48:22.362Z,-0.90
2018-12-16T23:50:56.423Z,-0.70
2018-12-16T23:53:30.464Z,-0.80
2018-12-16T23:56:04.724Z,-0.80
2018-12-16T23:58:38.694Z,-0.90
